Time;durP1;ratioP1;P1;durP2;ratioP2;P2;SDS_P1;SDS_P2;PMS_P1;PMS_P2;Temp;Humidity;BMP_temperature;BMP_pressure;BME280_temperature;BME280_humidity;BME280_pressure;Samples;Min_cycle;Max_cycle;Signal;HPM_P1;HPM_P2
2021/08/24 05:03:06;;;;;;;5.45;4.95;;;;;;;23.54;60.32;94777.22;4926650;29;20561;-76
2021/08/24 05:05:31;;;;;;;5.45;4.72;;;;;;;24.09;58.11;94783.84;4911675;29;20039;-76
2021/08/24 05:07:57;;;;;;;6.95;5.30;;;;;;;24.67;56.02;94786.19;4927913;29;20028;-76
2021/08/24 05:10:22;;;;;;;5.07;4.65;;;;;;;24.68;56.29;94786.97;4914441;29;20031;-77
2021/08/24 05:12:48;;;;;;;4.97;4.45;;;;;;;24.71;55.36;94786.47;4930394;29;20058;-75
2021/08/24 05:15:13;;;;;;;4.50;4.20;;;;;;;25.13;55.15;94792.38;4913625;29;20055;-76
2021/08/24 05:17:39;;;;;;;5.05;4.38;;;;;;;25.58;53.90;94786.25;4919633;29;20055;-76
2021/08/24 05:20:05;;;;;;;5.35;4.43;;;;;;;26.55;51.50;94789.41;4913736;29;20082;-76
2021/08/24 05:22:30;;;;;;;4.32;3.92;;;;;;;26.50;51.85;94795.53;4910192;29;20465;-78
2021/08/24 05:24:56;;;;;;;4.15;3.85;;;;;;;26.71;51.17;94794.34;4889450;29;20040;-77
2021/08/24 05:27:21;;;;;;;6.95;4.22;;;;;;;26.92;49.85;94792.41;4936039;29;20541;-76
2021/08/24 05:29:47;;;;;;;5.07;4.57;;;;;;;27.26;49.89;94789.75;4911645;29;20046;-76
2021/08/24 05:32:13;;;;;;;6.85;5.25;;;;;;;27.79;48.29;94792.50;4935987;29;20115;-76
2021/08/24 05:34:38;;;;;;;4.55;4.25;;;;;;;27.71;48.90;94796.56;4912994;29;20035;-76
2021/08/24 05:37:05;;;;;;;6.43;4.75;;;;;;;27.82;48.16;94792.72;4931344;29;20034;-76
2021/08/24 05:39:31;;;;;;;4.93;4.55;;;;;;;28.16;47.41;94798.75;4912609;29;20115;-76
2021/08/24 05:41:57;;;;;;;5.28;4.88;;;;;;;28.24;46.96;94800.03;4926133;29;20557;-75
2021/08/24 05:44:22;;;;;;;4.90;4.50;;;;;;;28.73;46.15;94799.69;4926870;29;20039;-77
2021/08/24 05:46:47;;;;;;;4.70;4.40;;;;;;;28.54;46.61;94797.00;4936079;29;20036;-77
2021/08/24 05:49:13;;;;;;;7.97;4.40;;;;;;;29.01;45.00;94797.97;4918518;29;20024;-76
2021/08/24 05:51:38;;;;;;;4.65;4.35;;;;;;;29.97;43.28;94764.34;4928245;29;20040;-77
2021/08/24 05:54:04;;;;;;;6.95;4.70;;;;;;;29.42;43.74;94796.25;4914023;29;20036;-76
2021/08/24 05:56:31;;;;;;;6.63;4.88;;;;;;;29.44;44.76;94791.44;4910294;29;20035;-76
2021/08/24 05:58:56;;;;;;;4.97;4.57;;;;;;;30.62;41.75;94797.81;4926524;29;20023;-77
2021/08/24 06:01:27;;;;;;;6.55;5.18;;;;;;;30.24;42.83;94789.19;4920699;29;20048;-77
2021/08/24 06:03:52;;;;;;;4.72;4.32;;;;;;;28.13;46.00;94795.88;4875356;29;20039;-76
2021/08/24 06:06:37;;;;;;;4.70;4.40;;;;;;;27.63;48.30;94790.00;4893692;29;20032;-77
2021/08/24 06:09:04;;;;;;;5.35;4.30;;;;;;;27.80;48.00;94794.88;4905999;29;20032;-76
2021/08/24 06:11:31;;;;;;;5.60;4.65;;;;;;;27.42;49.10;94790.44;4884830;29;20054;-77
2021/08/24 06:13:57;;;;;;;6.18;4.75;;;;;;;27.63;48.63;94789.19;4861103;29;20043;-76
2021/08/24 06:16:23;;;;;;;4.55;4.15;;;;;;;28.20;47.19;94788.34;4888168;29;20463;-77
2021/08/24 06:18:49;;;;;;;5.00;4.53;;;;;;;31.54;40.51;94789.28;4910681;29;20036;-78
2021/08/24 06:21:14;;;;;;;4.65;4.35;;;;;;;31.48;39.85;94787.81;4909741;29;20087;-77
2021/08/24 06:23:40;;;;;;;4.95;4.55;;;;;;;32.21;38.74;94786.47;4909874;29;20511;-78
2021/08/24 06:26:06;;;;;;;4.97;4.57;;;;;;;31.44;40.72;94786.03;4908339;29;20040;-78
2021/08/24 06:28:31;;;;;;;5.38;4.60;;;;;;;32.51;37.61;94780.28;4894646;29;20024;-77
2021/08/24 06:30:57;;;;;;;5.22;4.82;;;;;;;32.54;37.94;94776.97;4910227;29;20163;-76
2021/08/24 06:33:25;;;;;;;5.43;4.93;;;;;;;31.03;39.86;94778.97;4893151;29;20028;-77
2021/08/24 06:35:50;;;;;;;5.60;4.82;;;;;;;27.47;47.79;94782.41;4879452;29;20040;-78
2021/08/24 06:38:15;;;;;;;5.30;4.90;;;;;;;27.19;48.53;94790.09;4909432;29;20414;-78
2021/08/24 06:40:41;;;;;;;5.38;4.57;;;;;;;27.49;48.63;94775.75;4894079;29;20028;-78
2021/08/24 06:43:06;;;;;;;5.47;5.00;;;;;;;27.59;48.50;94772.97;4893044;29;20036;-77
2021/08/24 06:45:32;;;;;;;5.93;4.55;;;;;;;27.40;48.88;94769.41;4911290;29;20043;-77
2021/08/24 06:47:57;;;;;;;8.13;4.50;;;;;;;27.93;48.04;94770.25;4909778;29;20023;-79
2021/08/24 06:50:24;;;;;;;5.10;4.70;;;;;;;27.18;48.56;94771.72;4910314;29;20043;-78
2021/08/24 06:52:50;;;;;;;4.65;4.25;;;;;;;27.39;49.83;94773.13;4908963;29;20024;-79
2021/08/24 06:55:15;;;;;;;4.90;4.50;;;;;;;26.84;49.64;94770.94;4894034;29;20075;-78
2021/08/24 06:57:41;;;;;;;5.03;4.47;;;;;;;27.68;48.08;94768.63;4879218;29;20036;-78
2021/08/24 07:00:11;;;;;;;5.70;4.38;;;;;;;27.70;48.12;94769.16;4909305;29;20699;-78
2021/08/24 07:02:38;;;;;;;4.82;4.40;;;;;;;28.50;47.46;94773.84;4927859;29;20051;-80
2021/08/24 07:05:04;;;;;;;4.78;4.15;;;;;;;28.95;45.56;94762.56;4922071;29;20417;-78
2021/08/24 07:07:30;;;;;;;5.00;4.60;;;;;;;29.01;44.73;94771.28;4905513;29;20524;-78
2021/08/24 07:09:55;;;;;;;5.20;4.57;;;;;;;28.63;45.08;94773.13;4929793;29;20035;-78
2021/08/24 07:12:21;;;;;;;4.50;4.20;;;;;;;27.44;49.06;94772.34;4934513;29;20528;-79
2021/08/24 07:14:46;;;;;;;4.28;3.88;;;;;;;28.14;46.71;94768.16;4931493;29;20111;-78
2021/08/24 07:17:11;;;;;;;4.63;4.22;;;;;;;28.77;45.84;94766.00;4903647;29;20157;-79
2021/08/24 07:19:37;;;;;;;5.15;4.50;;;;;;;27.73;46.45;94762.47;4917265;29;20058;-78
2021/08/24 07:22:03;;;;;;;4.70;4.30;;;;;;;27.28;48.42;94766.31;4932588;29;20502;-78
2021/08/24 07:24:28;;;;;;;4.47;4.07;;;;;;;28.87;45.74;94759.75;4901348;29;20107;-78
2021/08/24 07:26:54;;;;;;;4.60;4.20;;;;;;;28.50;46.44;94760.50;4909185;29;20028;-79
2021/08/24 07:29:19;;;;;;;4.78;4.30;;;;;;;28.19;45.55;94770.78;4908931;29;20035;-79
2021/08/24 07:31:45;;;;;;;5.57;4.15;;;;;;;28.34;44.02;94762.59;4907493;29;20032;-78
2021/08/24 07:34:11;;;;;;;5.22;4.80;;;;;;;27.41;46.74;94765.69;4912477;29;20409;-78
2021/08/24 07:36:36;;;;;;;4.93;4.40;;;;;;;28.23;45.28;94761.13;4915956;29;20023;-77
2021/08/24 07:39:03;;;;;;;4.90;4.50;;;;;;;28.30;45.53;94760.78;4914815;29;20401;-79
2021/08/24 07:41:29;;;;;;;4.93;4.00;;;;;;;27.29;47.71;94762.59;4933197;29;20031;-78
2021/08/24 07:43:54;;;;;;;4.45;4.15;;;;;;;27.46;46.57;94768.31;4931652;29;20035;-78
2021/08/24 07:46:20;;;;;;;4.72;4.32;;;;;;;28.95;44.69;94753.75;4910077;29;20457;-78
2021/08/24 07:48:46;;;;;;;4.63;4.30;;;;;;;29.15;44.07;94754.25;4910929;29;20438;-80
2021/08/24 07:51:11;;;;;;;4.45;4.05;;;;;;;28.97;44.72;94754.25;4896936;29;20036;-80
2021/08/24 07:53:37;;;;;;;5.43;4.55;;;;;;;29.33;43.45;94746.50;4900645;29;20035;-79
2021/08/24 07:56:04;;;;;;;4.22;3.92;;;;;;;28.73;43.58;94749.81;4913624;29;20028;-79
2021/08/24 07:58:30;;;;;;;5.57;4.03;;;;;;;28.81;44.51;94745.69;4916151;29;20394;-78
2021/08/24 08:00:55;;;;;;;5.68;4.20;;;;;;;29.53;43.55;94744.28;4914326;29;20043;-77
2021/08/24 08:03:21;;;;;;;7.60;4.43;;;;;;;28.79;43.59;94737.19;4900599;29;20493;-77
2021/08/24 08:05:46;;;;;;;4.32;3.97;;;;;;;29.05;42.93;94737.59;4928840;29;20048;-79
2021/08/24 08:08:12;;;;;;;4.80;4.32;;;;;;;29.07;42.33;94736.22;4914448;29;20036;-76
2021/08/24 08:10:38;;;;;;;4.28;3.88;;;;;;;29.57;41.64;94733.81;4913549;29;20032;-77
2021/08/24 08:13:04;;;;;;;4.65;4.25;;;;;;;28.75;42.53;94736.97;4914622;29;20031;-78
2021/08/24 08:15:32;;;;;;;4.28;3.97;;;;;;;29.39;41.34;94742.66;4914235;29;20036;-79
2021/08/24 08:17:59;;;;;;;4.53;3.92;;;;;;;29.26;41.26;94739.66;4931218;29;20027;-78
2021/08/24 08:20:24;;;;;;;4.45;3.78;;;;;;;28.92;41.98;94741.00;4951898;29;20058;-78
2021/08/24 08:22:50;;;;;;;3.70;3.40;;;;;;;29.58;41.50;94733.50;4948766;29;20027;-78
2021/08/24 08:25:15;;;;;;;4.43;4.03;;;;;;;30.17;41.13;94737.22;4951018;29;20042;-79
2021/08/24 08:27:41;;;;;;;3.88;3.45;;;;;;;29.61;40.23;94730.25;4949437;29;20524;-79
2021/08/24 08:30:07;;;;;;;5.10;4.45;;;;;;;29.45;40.51;94736.13;4951909;29;20035;-79
2021/08/24 08:32:33;;;;;;;4.13;3.70;;;;;;;29.85;40.06;94726.63;4951406;29;20027;-78
2021/08/24 08:34:58;;;;;;;4.32;3.70;;;;;;;29.77;41.42;94730.75;4929600;29;20196;-79
2021/08/24 08:37:24;;;;;;;5.28;3.85;;;;;;;29.61;41.28;94734.78;4899526;29;20028;-79
2021/08/24 08:39:49;;;;;;;4.40;4.00;;;;;;;29.83;39.22;94728.81;4913807;29;20034;-76
2021/08/24 08:42:42;;;;;;;4.82;3.88;;;;;;;28.59;41.68;94724.91;4931988;29;20019;-80
2021/08/24 08:45:16;;;;;;;5.50;4.22;;;;;;;30.32;40.36;94726.19;4929095;29;20102;-79
2021/08/24 08:48:00;;;;;;;5.38;4.10;;;;;;;29.79;39.69;94721.38;4926370;29;20077;-80
2021/08/24 08:50:42;;;;;;;4.55;3.95;;;;;;;29.36;38.92;94719.22;4930803;29;20031;-79
2021/08/24 08:53:16;;;;;;;3.90;3.60;;;;;;;29.12;39.26;94717.44;4910633;29;20257;-80
2021/08/24 08:56:02;;;;;;;4.15;3.75;;;;;;;29.62;37.98;94707.78;4913629;29;20032;-79
2021/08/24 08:58:36;;;;;;;3.80;3.60;;;;;;;29.49;38.96;94708.56;4895375;29;20099;-78
2021/08/24 09:01:10;;;;;;;4.03;3.72;;;;;;;30.59;38.25;94704.00;4912473;29;20055;-79
2021/08/24 09:03:46;;;;;;;4.13;3.70;;;;;;;30.68;37.63;94710.19;4896458;29;20625;-79
2021/08/24 09:06:13;;;;;;;3.92;3.53;;;;;;;31.05;37.61;94704.50;4894662;29;20374;-80
2021/08/24 09:08:40;;;;;;;4.47;3.90;;;;;;;31.15;36.76;94703.47;4896420;29;20040;-80
2021/08/24 09:11:07;;;;;;;3.90;3.22;;;;;;;31.21;36.24;94700.34;4910428;29;20079;-80
2021/08/24 09:13:50;;;;;;;4.60;4.07;;;;;;;31.08;33.83;94695.09;4911894;29;20028;-79
2021/08/24 09:16:26;;;;;;;4.03;3.45;;;;;;;31.31;36.27;94704.66;4896146;29;20028;-80
2021/08/24 09:19:20;;;;;;;3.65;3.30;;;;;;;31.25;35.14;94695.19;4920384;29;20130;-80
2021/08/24 09:21:46;;;;;;;4.68;3.80;;;;;;;30.65;34.69;94692.88;4928568;29;20059;-79
2021/08/24 09:24:20;;;;;;;5.97;3.75;;;;;;;30.89;35.79;94691.78;4913293;29;20027;-80
2021/08/24 09:26:47;;;;;;;4.60;3.85;;;;;;;31.52;33.86;94684.34;4914483;29;20035;-79
2021/08/24 09:29:13;;;;;;;3.83;3.60;;;;;;;31.32;33.37;94688.31;4930083;29;20039;-79
2021/08/24 09:31:40;;;;;;;5.63;3.08;;;;;;;31.35;34.75;94678.88;4913826;29;20032;-78
2021/08/24 09:34:05;;;;;;;8.38;3.97;;;;;;;28.93;36.12;94675.91;4911877;29;20082;-81
2021/08/24 09:36:31;;;;;;;4.13;3.83;;;;;;;30.63;33.77;94673.63;4917271;29;20117;-79
2021/08/24 09:38:58;;;;;;;6.85;3.15;;;;;;;31.78;33.26;94676.41;4930789;29;20028;-81
2021/08/24 09:41:24;;;;;;;3.53;3.22;;;;;;;31.29;32.17;94672.06;4897461;29;20035;-79
2021/08/24 09:43:54;;;;;;;3.97;2.92;;;;;;;29.77;34.07;94669.31;4931472;29;20023;-78
2021/08/24 09:46:20;;;;;;;3.88;3.25;;;;;;;31.36;33.33;94669.75;4914121;29;20028;-79
2021/08/24 09:48:54;;;;;;;4.00;3.38;;;;;;;30.90;32.53;94667.38;4930198;29;20030;-80
2021/08/24 09:51:24;;;;;;;3.78;3.30;;;;;;;30.83;31.58;94667.81;4896800;29;20417;-80
2021/08/24 09:53:53;;;;;;;3.50;3.20;;;;;;;31.04;31.18;94664.69;4911001;29;20053;-77
2021/08/24 09:56:20;;;;;;;4.68;3.42;;;;;;;30.98;32.42;94660.56;4911303;29;20536;-78
2021/08/24 09:58:46;;;;;;;3.28;3.08;;;;;;;30.67;32.47;94665.81;4909592;29;20111;-80
2021/08/24 10:01:16;;;;;;;3.15;2.95;;;;;;;30.19;32.73;94660.19;4910720;29;20458;-81
2021/08/24 10:03:46;;;;;;;4.63;3.63;;;;;;;30.03;33.64;94653.56;4928537;29;20047;-80
2021/08/24 10:06:47;;;;;;;4.50;3.95;;;;;;;30.11;33.43;94653.69;4912015;29;20035;-80
2021/08/24 10:09:17;;;;;;;3.53;3.25;;;;;;;31.10;32.29;94640.16;4925177;29;20043;-79
2021/08/24 10:11:43;;;;;;;3.28;3.08;;;;;;;30.96;32.34;94644.00;4912382;29;20039;-81
2021/08/24 10:14:22;;;;;;;3.30;3.10;;;;;;;30.89;31.26;94633.69;4900603;29;20032;-80
2021/08/24 10:16:56;;;;;;;4.43;3.15;;;;;;;31.32;31.38;94642.00;4895233;29;20044;-80
2021/08/24 10:19:25;;;;;;;3.40;3.20;;;;;;;31.67;32.62;94635.69;4909313;29;20035;-81
2021/08/24 10:21:50;;;;;;;4.10;3.53;;;;;;;31.01;31.50;94635.84;4929510;29;20038;-80
2021/08/24 10:24:20;;;;;;;3.85;3.45;;;;;;;31.43;31.98;94634.47;4927330;29;20557;-81
2021/08/24 10:26:46;;;;;;;3.25;3.05;;;;;;;31.26;31.41;94621.81;4904725;29;20062;-81
2021/08/24 10:29:12;;;;;;;3.45;3.15;;;;;;;31.21;30.64;94613.91;4896628;29;20481;-77
2021/08/24 10:31:56;;;;;;;3.33;3.00;;;;;;;30.98;31.26;94615.06;4895394;29;20028;-78
2021/08/24 10:34:31;;;;;;;3.95;3.72;;;;;;;30.87;31.42;94624.38;4910886;29;20031;-77
2021/08/24 10:37:30;;;;;;;4.32;3.22;;;;;;;30.52;31.72;94626.84;4917800;29;20040;-77
2021/08/24 10:40:08;;;;;;;3.75;3.42;;;;;;;30.16;31.93;94600.09;4912131;29;20075;-77
2021/08/24 10:42:34;;;;;;;3.95;3.47;;;;;;;30.81;32.39;94621.06;4924998;29;20027;-77
2021/08/24 10:45:03;;;;;;;3.85;3.33;;;;;;;31.26;31.12;94611.88;4918182;29;20063;-79
2021/08/24 10:47:33;;;;;;;3.45;3.25;;;;;;;31.74;31.40;94616.47;4898821;29;20485;-77
2021/08/24 10:49:59;;;;;;;3.55;3.28;;;;;;;32.15;30.92;94610.75;4911010;29;20031;-77
2021/08/24 10:52:58;;;;;;;4.00;3.60;;;;;;;31.09;30.63;94611.78;4912424;29;20047;-77
2021/08/24 10:55:26;;;;;;;;;;;;;;;30.96;31.09;94607.31;4897658;29;20152;-78
2021/08/24 10:58:05;;;;;;;;;;;;;;;31.81;30.70;94606.91;4910643;29;20344;-76
2021/08/24 11:00:40;;;;;;;;;;;;;;;31.79;29.99;94593.00;4913205;29;19914;-77
2021/08/24 11:03:15;;;;;;;3.50;3.20;;;;;;;31.73;29.91;94602.28;4927895;29;19970;-79
2021/08/24 11:06:02;;;;;;;6.13;3.63;;;;;;;31.88;29.15;94595.72;4929117;29;20664;-81
2021/08/24 11:08:52;;;;;;;4.18;3.35;;;;;;;31.20;28.95;94593.59;4914827;29;20458;-78
2021/08/24 11:11:48;;;;;;;4.05;3.72;;;;;;;30.92;29.75;94589.50;4929138;29;20036;-78
2021/08/24 11:14:34;;;;;;;3.53;3.33;;;;;;;31.37;29.47;94585.59;4930486;29;20075;-79
2021/08/24 11:17:15;;;;;;;3.92;3.63;;;;;;;31.81;29.52;94580.09;4928055;29;20032;-79
2021/08/24 11:20:03;;;;;;;6.32;4.13;;;;;;;31.99;28.95;94580.91;4928404;29;20031;-80
2021/08/24 11:22:53;;;;;;;3.78;3.47;;;;;;;31.67;27.51;94582.09;4923675;29;20509;-78
2021/08/24 11:25:29;;;;;;;3.83;3.40;;;;;;;32.20;28.34;94571.19;4911983;29;20622;-78
2021/08/24 11:27:54;;;;;;;4.05;3.75;;;;;;;32.31;27.21;94577.00;4928481;29;20122;-78
2021/08/24 11:30:31;;;;;;;3.90;3.50;;;;;;;32.97;29.12;94580.25;4930165;29;20059;-78
2021/08/24 11:33:13;;;;;;;3.53;3.22;;;;;;;31.90;27.29;94565.91;4911673;29;20039;-76
2021/08/24 11:35:53;;;;;;;4.60;3.17;;;;;;;31.28;27.73;94563.38;4929026;29;20535;-79
2021/08/24 11:38:21;;;;;;;3.72;3.20;;;;;;;31.20;28.94;94572.97;4912489;29;20043;-77
2021/08/24 11:41:09;;;;;;;4.18;3.55;;;;;;;31.73;28.61;94572.03;4912251;29;20066;-77
2021/08/24 11:43:44;;;;;;;4.10;3.73;;;;;;;32.29;27.55;94571.97;4909753;29;20035;-77
2021/08/24 11:46:35;;;;;;;4.00;3.60;;;;;;;32.48;28.19;94570.81;4907344;29;20034;-79
2021/08/24 11:49:22;;;;;;;3.88;3.58;;;;;;;32.50;27.83;94568.59;4912428;29;20031;-77
2021/08/24 11:51:55;;;;;;;3.65;3.33;;;;;;;32.36;27.63;94563.44;4918931;29;20660;-78
2021/08/24 11:54:28;;;;;;;5.07;3.20;;;;;;;32.24;28.41;94569.41;4908331;29;20070;-79
2021/08/24 11:56:59;;;;;;;3.30;3.10;;;;;;;31.54;27.32;94558.13;4916505;29;20035;-79
2021/08/24 11:59:44;;;;;;;6.75;3.75;;;;;;;32.13;27.22;94559.34;4904058;29;20032;-78
2021/08/24 12:02:17;;;;;;;3.80;3.50;;;;;;;32.10;26.87;94559.97;4914375;29;20110;-79
2021/08/24 12:04:45;;;;;;;2.90;2.70;;;;;;;31.97;27.31;94553.63;4920488;29;20027;-79
2021/08/24 12:07:14;;;;;;;3.33;3.13;;;;;;;32.09;27.95;94558.38;4925049;29;20481;-79
2021/08/24 12:09:45;;;;;;;3.72;3.42;;;;;;;31.83;27.37;94551.09;4899920;29;20038;-76
2021/08/24 12:12:17;;;;;;;3.20;2.90;;;;;;;31.88;27.81;94548.22;4895379;29;20111;-80
2021/08/24 12:14:57;;;;;;;3.50;3.20;;;;;;;31.98;27.54;94563.22;4899687;29;20034;-79
2021/08/24 12:17:30;;;;;;;3.90;2.70;;;;;;;31.07;28.09;94551.63;4909164;29;20572;-81
2021/08/24 12:19:57;;;;;;;3.35;3.05;;;;;;;32.18;28.32;94551.13;4904048;29;20490;-82
2021/08/24 12:22:28;;;;;;;3.58;3.10;;;;;;;31.63;27.29;94542.84;4913083;29;20024;-80
2021/08/24 12:24:54;;;;;;;5.07;2.85;;;;;;;31.50;27.53;94544.56;4911136;29;20032;-81
2021/08/24 12:27:19;;;;;;;3.13;2.92;;;;;;;31.73;27.03;94543.34;4912906;29;20032;-81
2021/08/24 12:29:45;;;;;;;5.43;3.40;;;;;;;31.90;27.23;94544.47;4919673;29;20032;-80
2021/08/24 12:32:12;;;;;;;4.03;3.13;;;;;;;31.84;27.39;94539.28;4933084;29;20019;-80
2021/08/24 12:34:41;;;;;;;3.17;2.88;;;;;;;31.49;27.91;94537.59;4914600;29;20032;-81
2021/08/24 12:37:29;;;;;;;3.47;3.28;;;;;;;31.68;27.45;94532.78;4931519;29;20557;-80
2021/08/24 12:40:29;;;;;;;3.45;3.25;;;;;;;32.15;27.46;94520.38;4932160;29;20099;-80
2021/08/24 12:43:00;;;;;;;3.63;3.33;;;;;;;32.36;27.85;94517.84;4908623;29;20520;-81
2021/08/24 12:45:26;;;;;;;4.05;3.70;;;;;;;32.38;27.15;94512.94;4932561;29;20067;-79
2021/08/24 12:48:17;;;;;;;5.55;3.25;;;;;;;32.33;28.35;94521.16;4946712;29;20461;-80
2021/08/24 12:50:50;;;;;;;3.33;3.10;;;;;;;32.19;27.80;94521.31;4945470;29;20051;-80
2021/08/24 12:53:27;;;;;;;3.85;3.65;;;;;;;31.94;27.87;94510.56;4932184;29;20024;-81
2021/08/24 12:55:53;;;;;;;3.53;3.22;;;;;;;31.68;27.42;94505.19;4945245;29;20559;-80
2021/08/24 12:58:43;;;;;;;3.22;3.00;;;;;;;32.25;28.05;94511.22;4930481;29;20110;-80
2021/08/24 13:01:21;;;;;;;3.22;2.95;;;;;;;32.32;28.16;94509.63;4924862;29;20072;-81
2021/08/24 13:04:22;;;;;;;3.70;3.03;;;;;;;32.42;27.62;94507.72;4900807;29;20048;-80
2021/08/24 13:07:08;;;;;;;3.78;3.47;;;;;;;32.35;26.82;94503.63;4853005;29;20041;-81
2021/08/24 13:09:36;;;;;;;3.58;3.10;;;;;;;32.09;27.69;94499.41;4907920;29;20048;-82
2021/08/24 13:12:17;;;;;;;3.75;3.45;;;;;;;32.44;27.68;94497.44;4911726;29;20119;-83
2021/08/24 13:14:50;;;;;;;3.60;3.40;;;;;;;32.44;27.26;94492.09;4912871;29;20158;-80
2021/08/24 13:17:17;;;;;;;3.42;3.13;;;;;;;32.06;27.66;94489.31;4910682;29;20589;-82
2021/08/24 13:19:46;;;;;;;3.88;3.47;;;;;;;32.71;27.82;94484.47;4880502;29;20442;-82
2021/08/24 13:22:19;;;;;;;3.55;3.22;;;;;;;32.57;26.96;94477.72;4879226;29;20506;-81
2021/08/24 13:24:47;;;;;;;3.75;3.40;;;;;;;32.58;27.12;94487.34;4879750;29;20406;-81
2021/08/24 13:27:37;;;;;;;3.40;3.20;;;;;;;32.15;27.35;94477.47;4879576;29;20132;-82
2021/08/24 13:30:09;;;;;;;3.38;3.08;;;;;;;31.91;28.15;94479.84;4889633;29;20025;-77
2021/08/24 13:32:39;;;;;;;6.65;3.22;;;;;;;32.74;26.74;94472.31;4911498;29;20091;-77
2021/08/24 13:35:17;;;;;;;3.88;3.42;;;;;;;31.96;27.56;94474.28;4894589;29;20040;-79
2021/08/24 13:37:44;;;;;;;3.55;3.35;;;;;;;32.87;27.72;94477.47;4877514;29;20075;-78
2021/08/24 13:40:13;;;;;;;4.20;3.17;;;;;;;32.76;27.08;94472.75;4881799;29;20581;-78
2021/08/24 13:42:45;;;;;;;;;;;;;;;32.33;27.73;94484.38;4868366;29;20148;-76
2021/08/24 13:45:15;;;;;;;3.03;2.83;;;;;;;32.10;27.13;94474.97;4903670;29;19941;-79
2021/08/24 13:47:44;;;;;;;3.38;3.08;;;;;;;32.03;27.45;94476.50;4876995;29;20032;-78
2021/08/24 13:50:10;;;;;;;3.88;3.50;;;;;;;31.94;27.02;94486.44;4894721;29;20035;-76
2021/08/24 13:52:38;;;;;;;4.50;2.90;;;;;;;31.76;27.55;94469.56;4894114;29;20035;-79
2021/08/24 13:55:27;;;;;;;3.53;3.33;;;;;;;32.25;27.13;94463.72;4893305;29;20039;-80
2021/08/24 13:57:52;;;;;;;3.08;2.88;;;;;;;32.14;27.15;94467.06;4906077;29;20419;-81
2021/08/24 14:00:19;;;;;;;3.70;3.40;;;;;;;32.12;27.51;94463.91;4893172;29;20032;-79
2021/08/24 14:02:49;;;;;;;3.45;3.10;;;;;;;32.26;27.51;94459.16;4909288;29;20735;-80
2021/08/24 14:05:14;;;;;;;5.15;3.28;;;;;;;31.86;28.32;94448.59;4894041;29;20040;-79
2021/08/24 14:07:40;;;;;;;3.20;3.00;;;;;;;31.98;27.50;94455.22;4910223;29;20055;-80
2021/08/24 14:10:27;;;;;;;3.55;3.28;;;;;;;31.99;27.88;94457.59;4889661;29;20036;-76
2021/08/24 14:13:01;;;;;;;6.78;3.25;;;;;;;31.60;27.64;94455.84;4883196;29;20043;-80
2021/08/24 14:15:34;;;;;;;3.75;3.38;;;;;;;31.77;28.24;94449.72;4894347;29;20122;-81
2021/08/24 14:18:08;;;;;;;3.40;3.13;;;;;;;31.52;29.00;94451.28;4881945;29;20038;-81
2021/08/24 14:20:48;;;;;;;3.88;3.38;;;;;;;31.39;28.87;94456.75;4896226;29;20409;-80
2021/08/24 14:23:19;;;;;;;3.97;2.58;;;;;;;31.29;28.47;94455.16;4910871;29;20549;-79
2021/08/24 14:25:46;;;;;;;4.22;3.67;;;;;;;31.48;28.62;94458.34;4909994;29;20096;-80
2021/08/24 14:28:29;;;;;;;3.95;3.58;;;;;;;31.62;28.76;94452.88;4879428;29;20043;-81
2021/08/24 14:30:57;;;;;;;3.63;3.42;;;;;;;31.40;28.49;94447.63;4905013;29;20055;-80
2021/08/24 14:33:32;;;;;;;3.78;3.20;;;;;;;31.41;28.65;94444.63;4891093;29;20402;-78
2021/08/24 14:36:02;;;;;;;4.55;3.30;;;;;;;31.25;28.90;94449.63;4899537;29;20569;-81
2021/08/24 14:38:40;;;;;;;3.75;3.45;;;;;;;31.30;29.05;94446.03;4891611;29;20029;-78
2021/08/24 14:41:07;;;;;;;4.07;3.78;;;;;;;31.14;28.98;94451.06;4894424;29;20033;-79
2021/08/24 14:43:33;;;;;;;3.70;3.40;;;;;;;31.04;29.56;94442.50;4908583;29;20444;-81
2021/08/24 14:45:58;;;;;;;4.30;4.00;;;;;;;31.06;29.09;94438.41;4909935;29;20521;-81
2021/08/24 14:48:26;;;;;;;4.00;3.70;;;;;;;30.97;29.63;94444.84;4917357;29;20141;-79
2021/08/24 14:50:56;;;;;;;3.90;3.55;;;;;;;30.88;30.21;94442.13;4885521;29;20055;-79
2021/08/24 14:53:31;;;;;;;5.15;3.78;;;;;;;30.91;29.92;94438.03;4908155;29;20032;-79
2021/08/24 14:56:23;;;;;;;3.55;3.30;;;;;;;30.91;29.00;94430.00;4892457;29;20142;-80
2021/08/24 14:59:08;;;;;;;4.95;3.70;;;;;;;30.84;30.02;94431.25;4902346;29;20039;-80
2021/08/24 15:01:34;;;;;;;3.80;3.50;;;;;;;30.67;29.59;94439.22;4918959;29;20142;-79
2021/08/24 15:04:05;;;;;;;4.40;4.00;;;;;;;30.62;29.79;94430.53;4896323;29;20040;-80
2021/08/24 15:06:36;;;;;;;5.80;4.03;;;;;;;30.57;30.76;94431.47;4935905;29;20031;-79
2021/08/24 15:09:34;;;;;;;4.68;4.28;;;;;;;30.50;30.70;94428.47;4923730;29;20410;-78
2021/08/24 15:12:04;;;;;;;4.57;4.28;;;;;;;30.40;30.88;94428.72;4929946;29;20050;-77
2021/08/24 15:14:32;;;;;;;5.38;4.22;;;;;;;30.45;30.70;94425.91;4933319;29;20069;-77
2021/08/24 15:17:07;;;;;;;5.30;4.80;;;;;;;30.40;30.56;94428.72;4895020;29;20043;-77
2021/08/24 15:19:35;;;;;;;7.30;4.07;;;;;;;30.26;31.31;94419.97;4893896;29;20382;-77
2021/08/24 15:22:01;;;;;;;4.30;4.00;;;;;;;30.12;31.70;94424.59;4893638;29;20031;-77
2021/08/24 15:24:32;;;;;;;5.05;4.07;;;;;;;30.10;31.50;94424.13;4907084;29;20036;-78
2021/08/24 15:27:17;;;;;;;5.72;5.22;;;;;;;30.11;31.54;94421.16;4896970;29;20726;-79
2021/08/24 15:30:08;;;;;;;5.07;4.68;;;;;;;30.09;31.92;94422.53;4916793;29;20039;-79
2021/08/24 15:32:45;;;;;;;5.38;4.47;;;;;;;29.93;32.05;94426.66;4931505;29;20043;-77
2021/08/24 15:35:15;;;;;;;5.05;4.65;;;;;;;29.79;32.00;94422.19;4931999;29;20039;-79
2021/08/24 15:37:41;;;;;;;5.28;4.25;;;;;;;29.71;32.13;94422.88;4916710;29;20040;-79
2021/08/24 15:40:12;;;;;;;5.15;4.50;;;;;;;29.64;32.71;94427.84;4911667;29;20512;-78
2021/08/24 15:42:37;;;;;;;4.50;4.10;;;;;;;29.64;32.75;94430.53;4904661;29;20028;-77
2021/08/24 15:45:03;;;;;;;4.70;4.30;;;;;;;29.60;32.32;94434.91;4915739;29;20466;-78
2021/08/24 15:47:28;;;;;;;5.32;4.80;;;;;;;29.56;33.18;94438.47;4900106;29;20040;-79
2021/08/24 15:49:54;;;;;;;5.18;4.22;;;;;;;29.44;33.06;94424.88;4916544;29;20028;-79
2021/08/24 15:52:20;;;;;;;4.63;4.20;;;;;;;29.30;33.24;94427.56;4914510;29;20036;-79
2021/08/24 15:54:45;;;;;;;4.45;4.15;;;;;;;29.26;33.04;94431.94;4916382;29;20039;-79
2021/08/24 15:57:11;;;;;;;5.10;4.60;;;;;;;29.26;33.20;94437.25;4914802;29;20082;-80
2021/08/24 15:59:36;;;;;;;3.80;3.60;;;;;;;29.27;32.96;94431.63;4916382;29;20110;-80
2021/08/24 16:02:03;;;;;;;4.53;4.10;;;;;;;29.20;32.83;94438.44;4930915;29;20043;-78
2021/08/24 16:04:29;;;;;;;5.05;3.58;;;;;;;29.07;33.14;94433.91;4931714;29;20028;-80
2021/08/24 16:06:58;;;;;;;4.13;3.38;;;;;;;29.02;33.18;94442.03;4916000;29;20096;-79
2021/08/24 16:09:23;;;;;;;4.00;3.70;;;;;;;28.94;32.95;94442.72;4932202;29;20102;-78
2021/08/24 16:11:50;;;;;;;9.07;3.45;;;;;;;28.82;32.84;94443.22;4915984;29;20437;-81
2021/08/24 16:14:19;;;;;;;3.97;3.28;;;;;;;28.85;32.82;94450.63;4930091;29;20027;-80
2021/08/24 16:16:44;;;;;;;;;;;;;;;28.74;32.94;94447.38;4916966;29;20023;-80
2021/08/24 16:19:09;;;;;;;3.77;3.47;;;;;;;28.54;33.11;94453.06;4930458;29;19943;-76
2021/08/24 16:21:36;;;;;;;3.45;3.15;;;;;;;28.40;33.86;94457.59;4915570;29;20292;-79
2021/08/24 16:24:01;;;;;;;5.25;3.45;;;;;;;28.30;33.87;94462.28;4899708;29;20035;-80
2021/08/24 16:26:27;;;;;;;4.28;3.33;;;;;;;28.17;34.29;94472.63;4915145;29;20416;-81
2021/08/24 16:28:53;;;;;;;3.53;3.22;;;;;;;28.08;34.05;94465.59;4916223;29;20036;-80
2021/08/24 16:31:18;;;;;;;3.78;3.47;;;;;;;27.90;34.71;94469.88;4895481;29;20103;-80
2021/08/24 16:33:44;;;;;;;5.28;3.00;;;;;;;27.75;34.96;94467.41;4897023;29;20479;-80
2021/08/24 16:36:10;;;;;;;3.47;3.20;;;;;;;27.66;34.78;94466.50;4901738;29;20028;-81
2021/08/24 16:38:36;;;;;;;3.70;3.20;;;;;;;27.51;35.14;94464.88;4898719;29;20492;-81
2021/08/24 16:41:02;;;;;;;6.90;3.33;;;;;;;27.41;34.76;94467.63;4899046;29;20063;-76
2021/08/24 16:43:30;;;;;;;3.45;3.15;;;;;;;27.27;35.30;94464.09;4914532;29;20027;-79
2021/08/24 16:45:58;;;;;;;3.60;3.25;;;;;;;27.15;35.63;94479.69;4915454;29;20050;-81
2021/08/24 16:48:24;;;;;;;5.93;3.55;;;;;;;27.05;35.83;94471.81;4899583;29;20509;-79
2021/08/24 16:50:50;;;;;;;3.60;3.30;;;;;;;26.90;36.54;94477.34;4915531;29;20110;-79
2021/08/24 16:53:15;;;;;;;4.22;3.35;;;;;;;26.75;36.64;94477.47;4914567;29;20156;-79